createdAt,value
2023-04-18T00:01:16.230Z,85547.56
2023-04-18T00:03:42.469Z,85546.88
2023-04-18T00:06:08.830Z,85551.13
2023-04-18T00:08:34.933Z,85542.59
2023-04-18T00:11:01.105Z,85544.50
2023-04-18T00:13:27.236Z,85539.97
2023-04-18T00:15:53.456Z,85540.97
2023-04-18T00:18:19.588Z,85531.03
2023-04-18T00:20:45.726Z,85534.75
2023-04-18T00:23:13.380Z,85530.75
2023-04-18T00:25:39.629Z,85528.44
2023-04-18T00:28:05.782Z,85525.81
2023-04-18T00:30:31.929Z,85523.91
2023-04-18T00:32:58.154Z,85520.59
2023-04-18T00:35:24.283Z,85524.88
2023-04-18T00:37:50.408Z,85524.16
2023-04-18T00:40:16.500Z,85521.56
2023-04-18T00:42:42.633Z,85518.69
2023-04-18T00:45:08.786Z,85524.88
2023-04-18T00:47:34.911Z,85520.59
2023-04-18T00:50:01.025Z,85519.41
2023-04-18T00:52:27.257Z,85517.28
2023-04-18T00:54:53.382Z,85516.31
2023-04-18T00:57:19.481Z,85518.88
2023-04-18T00:59:45.561Z,85520.81
2023-04-18T01:02:11.706Z,85514.88
2023-04-18T01:04:37.873Z,85510.38
2023-04-18T01:07:04.001Z,85512.97
2023-04-18T01:09:30.205Z,85516.50
2023-04-18T01:11:56.323Z,85513.66
2023-04-18T01:14:22.597Z,85517.94
2023-04-18T01:16:48.728Z,85517.94
2023-04-18T01:19:14.818Z,85515.56
2023-04-18T01:21:40.903Z,85505.16
2023-04-18T01:24:06.988Z,85510.53
2023-04-18T01:26:33.116Z,85508.59
2023-04-18T01:28:59.237Z,85509.78
2023-04-18T01:31:25.400Z,85513.31
2023-04-18T01:33:51.520Z,85504.53
2023-04-18T01:36:17.615Z,85500.75
2023-04-18T01:38:43.752Z,85500.94
2023-04-18T01:41:09.862Z,85505.44
2023-04-18T01:43:35.947Z,85506.84
2023-04-18T01:46:02.046Z,85498.31
2023-04-18T01:48:28.145Z,85496.19
2023-04-18T01:50:54.247Z,85494.97
2023-04-18T01:53:20.357Z,85492.13
2023-04-18T01:55:46.470Z,85493.78
2023-04-18T01:58:12.563Z,85489.25
2023-04-18T02:00:38.695Z,85490.59
2023-04-18T02:03:05.055Z,85491.34
2023-04-18T02:05:31.301Z,85493.22
2023-04-18T02:07:57.398Z,85492.75
2023-04-18T02:10:23.498Z,85490.91
2023-04-18T02:12:49.612Z,85492.31
2023-04-18T02:15:15.839Z,85486.91
2023-04-18T02:17:42.126Z,85485.16
2023-04-18T02:20:08.401Z,85493.50
2023-04-18T02:22:34.503Z,85492.22
2023-04-18T02:25:00.622Z,85484.88
2023-04-18T02:27:26.747Z,85489.59
2023-04-18T02:29:52.870Z,85497.84
2023-04-18T02:32:18.978Z,85497.34
2023-04-18T02:34:45.082Z,85495.28
2023-04-18T02:37:11.205Z,85493.41
2023-04-18T02:39:37.304Z,85491.25
2023-04-18T02:42:03.403Z,85490.25
2023-04-18T02:44:29.506Z,85487.44
2023-04-18T02:46:55.602Z,85492.03
2023-04-18T02:49:21.719Z,85494.84
2023-04-18T02:51:47.862Z,85495.75
2023-04-18T02:54:14.177Z,85502.28
2023-04-18T02:56:40.548Z,85498.31
2023-04-18T02:59:06.636Z,85499.78
2023-04-18T03:01:32.766Z,85499.22
2023-04-18T03:03:58.874Z,85498.66
2023-04-18T03:06:24.982Z,85500.19
2023-04-18T03:08:51.088Z,85503.41
2023-04-18T03:11:17.177Z,85503.91
2023-04-18T03:13:43.276Z,85496.06
2023-04-18T03:16:09.379Z,85500.38
2023-04-18T03:18:35.526Z,85501.56
2023-04-18T03:21:01.642Z,85503.69
2023-04-18T03:23:27.763Z,85499.84
2023-04-18T03:25:53.872Z,85500.19
2023-04-18T03:28:19.958Z,85496.38
2023-04-18T03:30:46.086Z,85502.28
2023-04-18T03:33:12.172Z,85494.22
2023-04-18T03:35:38.268Z,85509.81
2023-04-18T03:38:04.384Z,85511.81
2023-04-18T03:40:30.516Z,85510.38
2023-04-18T03:42:56.629Z,85507.34
2023-04-18T03:45:22.743Z,85507.91
2023-04-18T03:47:48.882Z,85509.22
2023-04-18T03:50:15.013Z,85503.75
2023-04-18T03:52:41.110Z,85507.47
2023-04-18T03:55:07.208Z,85504.22
2023-04-18T03:57:33.348Z,85508.63
2023-04-18T03:59:59.475Z,85507.25
2023-04-18T04:02:25.722Z,85505.34
2023-04-18T04:04:52.007Z,85506.53
2023-04-18T04:07:18.187Z,85514.84
2023-04-18T04:09:44.291Z,85508.63
2023-04-18T04:12:10.375Z,85503.84
2023-04-18T04:14:36.487Z,85512.34
2023-04-18T04:17:02.579Z,85514.00
2023-04-18T04:19:28.675Z,85513.31
2023-04-18T04:21:54.752Z,85508.13
2023-04-18T04:24:20.856Z,85521.41
2023-04-18T04:26:46.965Z,85513.69
2023-04-18T04:29:13.093Z,85520.34
2023-04-18T04:31:39.250Z,85523.44
2023-04-18T04:34:05.356Z,85524.03
2023-04-18T04:36:31.446Z,85522.44
2023-04-18T04:38:57.540Z,85523.09
2023-04-18T04:41:23.630Z,85529.75
2023-04-18T04:43:49.764Z,85531.22
2023-04-18T04:46:15.897Z,85539.00
2023-04-18T04:48:42.081Z,85533.75
2023-04-18T04:51:08.192Z,85531.56
2023-04-18T04:53:34.333Z,85529.31
2023-04-18T04:56:00.446Z,85533.97
2023-04-18T04:58:26.553Z,85544.25
2023-04-18T05:00:52.844Z,85534.50
2023-04-18T05:03:19.170Z,85538.16
2023-04-18T05:05:45.418Z,85537.03
2023-04-18T05:08:11.514Z,85538.78
2023-04-18T05:10:37.601Z,85542.69
2023-04-18T05:13:03.700Z,85545.28
2023-04-18T05:15:29.812Z,85544.94
2023-04-18T05:17:55.993Z,85542.78
2023-04-18T05:20:22.172Z,85544.75
2023-04-18T05:22:48.273Z,85544.88
2023-04-18T05:25:14.413Z,85543.97
2023-04-18T05:27:40.528Z,85539.84
2023-04-18T05:30:06.644Z,85546.72
2023-04-18T05:32:33.825Z,85547.53
2023-04-18T05:34:59.966Z,85546.41
2023-04-18T05:37:26.084Z,85549.31
2023-04-18T05:39:52.194Z,85550.44
2023-04-18T05:42:18.313Z,85539.13
2023-04-18T05:44:44.422Z,85543.13
2023-04-18T05:47:10.536Z,85542.66
2023-04-18T05:49:36.648Z,85539.91
2023-04-18T05:52:02.771Z,85547.31
2023-04-18T05:54:28.868Z,85548.31
2023-04-18T05:56:54.971Z,85546.91
2023-04-18T05:59:21.093Z,85544.09
2023-04-18T06:01:47.201Z,85545.03
2023-04-18T06:04:13.784Z,85545.69
2023-04-18T06:06:40.373Z,85542.50
2023-04-18T06:09:06.480Z,85553.19
2023-04-18T06:11:32.596Z,85541.53
2023-04-18T06:13:58.701Z,85549.78
2023-04-18T06:16:24.860Z,85550.72
2023-04-18T06:18:50.993Z,85555.84
2023-04-18T06:21:17.095Z,85555.84
2023-04-18T06:23:43.189Z,85558.94
2023-04-18T06:26:09.312Z,85552.16
2023-04-18T06:28:35.417Z,85553.41
2023-04-18T06:31:01.545Z,85554.09
2023-04-18T06:33:27.665Z,85550.34
2023-04-18T06:35:53.766Z,85544.22
2023-04-18T06:38:19.874Z,85547.56
2023-04-18T06:40:45.967Z,85540.97
2023-04-18T06:43:12.071Z,85544.53
2023-04-18T06:45:38.268Z,85543.59
2023-04-18T06:48:04.439Z,85544.41
2023-04-18T06:50:30.583Z,85542.34
2023-04-18T06:52:56.706Z,85537.25
2023-04-18T06:55:22.800Z,85531.22
2023-04-18T06:57:48.931Z,85534.09
2023-04-18T07:00:15.063Z,85537.91
2023-04-18T07:02:41.354Z,85532.00
2023-04-18T07:05:07.536Z,85528.91
2023-04-18T07:07:33.624Z,85528.44
2023-04-18T07:09:59.809Z,85528.88
2023-04-18T07:12:25.900Z,85530.72
2023-04-18T07:14:52.010Z,85528.31
2023-04-18T07:17:18.190Z,85531.09
2023-04-18T07:19:44.301Z,85521.13
2023-04-18T07:22:10.412Z,85520.81
2023-04-18T07:24:36.519Z,85521.41
2023-04-18T07:27:02.636Z,85519.78
2023-04-18T07:29:28.743Z,85517.81
2023-04-18T07:31:54.900Z,85520.56
2023-04-18T07:34:21.004Z,85522.47
2023-04-18T07:36:47.107Z,85519.91
2023-04-18T07:39:13.232Z,85517.69
2023-04-18T07:41:39.338Z,85527.47
2023-04-18T07:44:05.507Z,85524.13
2023-04-18T07:46:31.671Z,85522.94
2023-04-18T07:48:57.838Z,85523.06
2023-04-18T07:51:23.938Z,85520.81
2023-04-18T07:53:50.049Z,85526.31
2023-04-18T07:56:16.169Z,85522.16
2023-04-18T07:58:42.287Z,85524.78
2023-04-18T08:01:08.526Z,85523.09
2023-04-18T08:03:34.818Z,85518.50
2023-04-18T08:06:01.021Z,85519.00
2023-04-18T08:08:27.112Z,85523.34
2023-04-18T08:10:53.220Z,85529.91
2023-04-18T08:13:19.367Z,85523.38
2023-04-18T08:15:45.506Z,85512.63
2023-04-18T08:18:11.622Z,85520.63
2023-04-18T08:20:37.751Z,85517.59
2023-04-18T08:23:08.560Z,85514.25
2023-04-18T08:25:36.741Z,85510.69
2023-04-18T08:28:02.965Z,85511.88
2023-04-18T08:30:29.062Z,85516.88
2023-04-18T08:32:55.277Z,85512.22
2023-04-18T08:35:21.444Z,85510.50
2023-04-18T08:37:47.561Z,85515.84
2023-04-18T08:40:13.670Z,85522.63
2023-04-18T08:42:39.775Z,85518.72
2023-04-18T08:45:05.887Z,85516.28
2023-04-18T08:47:32.192Z,85509.66
2023-04-18T08:49:58.351Z,85508.75
2023-04-18T08:52:24.456Z,85510.47
2023-04-18T08:54:50.573Z,85509.22
2023-04-18T08:57:16.706Z,85513.03
2023-04-18T08:59:43.856Z,85514.56
2023-04-18T09:02:11.214Z,85511.78
2023-04-18T09:04:37.391Z,85505.50
2023-04-18T09:07:03.552Z,85513.63
2023-04-18T09:09:29.651Z,85512.50
2023-04-18T09:11:55.772Z,85517.19
2023-04-18T09:14:21.872Z,85512.72
2023-04-18T09:16:47.987Z,85522.91
2023-04-18T09:19:14.372Z,85512.88
2023-04-18T09:21:40.749Z,85504.22
2023-04-18T09:24:06.836Z,85510.69
2023-04-18T09:26:32.936Z,85513.88
2023-04-18T09:28:59.094Z,85518.09
2023-04-18T09:31:25.334Z,85517.03
2023-04-18T09:33:51.481Z,85516.22
2023-04-18T09:36:17.563Z,85518.03
2023-04-18T09:38:43.652Z,85517.59
2023-04-18T09:41:09.750Z,85515.13
2023-04-18T09:43:35.851Z,85518.09
2023-04-18T09:46:02.037Z,85508.03
2023-04-18T09:48:28.355Z,85509.84
2023-04-18T09:50:54.506Z,85516.03
2023-04-18T09:53:21.092Z,85511.59
2023-04-18T09:55:47.594Z,85510.78
2023-04-18T09:58:13.782Z,85515.03
2023-04-18T10:00:40.028Z,85522.00
2023-04-18T10:03:06.271Z,85516.84
2023-04-18T10:05:32.536Z,85500.69
2023-04-18T10:07:58.677Z,85510.66
2023-04-18T10:10:24.802Z,85515.50
2023-04-18T10:12:50.975Z,85504.41
2023-04-18T10:15:17.093Z,85511.69
2023-04-18T10:17:52.702Z,85506.72
2023-04-18T10:20:26.672Z,85506.28
2023-04-18T10:22:52.848Z,85508.13
2023-04-18T10:25:18.946Z,85510.81
2023-04-18T10:27:45.041Z,85501.81
2023-04-18T10:30:11.158Z,85502.09
2023-04-18T10:32:37.324Z,85502.72
2023-04-18T10:35:03.465Z,85505.19
2023-04-18T10:37:29.630Z,85489.84
2023-04-18T10:39:55.752Z,85492.88
2023-04-18T10:42:21.870Z,85490.06
2023-04-18T10:44:47.991Z,85490.06
2023-04-18T10:47:14.147Z,85498.63
2023-04-18T10:49:40.296Z,85493.88
2023-04-18T10:52:06.409Z,85492.50
2023-04-18T10:54:32.529Z,85494.84
2023-04-18T10:56:58.687Z,85495.34
2023-04-18T10:59:24.791Z,85476.53
2023-04-18T11:01:50.959Z,85483.16
2023-04-18T11:04:17.484Z,85480.59
2023-04-18T11:06:43.775Z,85476.09
2023-04-18T11:09:09.910Z,85482.09
2023-04-18T11:11:36.089Z,85470.84
2023-04-18T11:14:02.199Z,85468.38
2023-04-18T11:16:28.311Z,85463.41
2023-04-18T11:18:54.615Z,85473.66
2023-04-18T11:21:20.715Z,85467.25
2023-04-18T11:23:46.829Z,85464.19
2023-04-18T11:26:12.946Z,85471.22
2023-04-18T11:28:39.069Z,85466.72
2023-04-18T11:31:05.167Z,85468.22
2023-04-18T11:33:31.297Z,85461.00
2023-04-18T11:35:57.407Z,85467.59
2023-04-18T11:38:24.296Z,85468.47
2023-04-18T11:40:50.594Z,85462.31
2023-04-18T11:43:16.858Z,85458.63
2023-04-18T11:45:42.994Z,85462.38
2023-04-18T11:48:09.194Z,85453.22
2023-04-18T11:50:35.327Z,85460.13
2023-04-18T11:53:01.415Z,85459.34
2023-04-18T11:55:27.509Z,85469.97
2023-04-18T11:57:53.669Z,85460.69
2023-04-18T12:00:19.822Z,85465.59
2023-04-18T12:02:46.129Z,85464.44
2023-04-18T12:05:12.724Z,85465.91
2023-04-18T12:07:39.028Z,85465.13
2023-04-18T12:10:05.167Z,85470.78
2023-04-18T12:12:31.302Z,85471.34
2023-04-18T12:14:57.423Z,85465.97
2023-04-18T12:17:23.652Z,85462.22
2023-04-18T12:19:49.866Z,85466.19
2023-04-18T12:22:16.077Z,85462.66
2023-04-18T12:24:42.203Z,85459.66
2023-04-18T12:27:08.294Z,85459.56
2023-04-18T12:29:34.420Z,85451.44
2023-04-18T12:32:00.588Z,85469.63
2023-04-18T12:34:26.724Z,85464.16
2023-04-18T12:36:52.822Z,85456.31
2023-04-18T12:39:18.949Z,85459.91
2023-04-18T12:41:45.054Z,85454.34
2023-04-18T12:44:11.200Z,85455.63
2023-04-18T12:46:37.464Z,85458.38
2023-04-18T12:49:03.640Z,85461.25
2023-04-18T12:51:29.745Z,85454.81
2023-04-18T12:53:55.860Z,85451.75
2023-04-18T12:56:21.980Z,85449.69
2023-04-18T12:58:48.096Z,85459.53
2023-04-18T13:01:14.323Z,85465.88
2023-04-18T13:03:40.601Z,85465.06
2023-04-18T13:06:06.842Z,85467.53
2023-04-18T13:08:32.936Z,85472.38
2023-04-18T13:10:59.047Z,85470.91
2023-04-18T13:13:25.140Z,85474.88
2023-04-18T13:15:51.306Z,85475.19
2023-04-18T13:18:17.455Z,85465.53
2023-04-18T13:20:43.543Z,85475.78
2023-04-18T13:23:09.657Z,85478.16
2023-04-18T13:25:35.768Z,85478.13
2023-04-18T13:28:01.922Z,85482.97
2023-04-18T13:30:28.086Z,85478.63
2023-04-18T13:32:54.234Z,85475.66
2023-04-18T13:35:20.436Z,85484.34
2023-04-18T13:37:46.525Z,85476.19
2023-04-18T13:40:13.040Z,85472.84
2023-04-18T13:42:39.189Z,85479.34
2023-04-18T13:45:05.308Z,85480.06
2023-04-18T13:47:31.480Z,85477.38
2023-04-18T13:49:57.679Z,85487.34
2023-04-18T13:52:23.889Z,85479.34
2023-04-18T13:54:49.995Z,85482.56
2023-04-18T13:57:16.097Z,85477.31
2023-04-18T13:59:42.198Z,85477.16
2023-04-18T14:02:08.506Z,85470.06
2023-04-18T14:04:34.854Z,85472.09
2023-04-18T14:07:01.020Z,85473.06
2023-04-18T14:09:27.116Z,85465.06
2023-04-18T14:11:53.228Z,85470.03
2023-04-18T14:14:19.365Z,85478.06
2023-04-18T14:16:45.469Z,85477.19
2023-04-18T14:19:11.667Z,85469.97
2023-04-18T14:21:37.834Z,85474.28
2023-04-18T14:24:03.954Z,85480.53
2023-04-18T14:26:30.091Z,85478.41
2023-04-18T14:28:56.182Z,85475.56
2023-04-18T14:31:22.373Z,85478.69
2023-04-18T14:33:48.536Z,85479.53
2023-04-18T14:36:14.642Z,85470.94
2023-04-18T14:38:40.745Z,85489.63
2023-04-18T14:41:06.978Z,85480.03
2023-04-18T14:43:33.099Z,85486.47
2023-04-18T14:45:59.822Z,85478.34
2023-04-18T14:48:26.106Z,85476.84
2023-04-18T14:50:52.198Z,85472.75
2023-04-18T14:53:18.633Z,85478.88
2023-04-18T14:55:44.739Z,85471.00
2023-04-18T14:58:10.918Z,85479.53
2023-04-18T15:00:37.023Z,85480.09
2023-04-18T15:03:03.254Z,85483.69
2023-04-18T15:05:29.451Z,85483.88
2023-04-18T15:07:55.576Z,85485.28
2023-04-18T15:10:21.697Z,85487.03
2023-04-18T15:12:47.833Z,85482.75
2023-04-18T15:15:13.942Z,85486.44
2023-04-18T15:17:40.171Z,85486.63
2023-04-18T15:20:06.349Z,85485.63
2023-04-18T15:22:32.469Z,85478.41
2023-04-18T15:24:58.593Z,85479.06
2023-04-18T15:27:24.697Z,85481.00
2023-04-18T15:29:50.790Z,85478.06
2023-04-18T15:32:16.952Z,85496.09
2023-04-18T15:34:43.100Z,85488.00
2023-04-18T15:37:09.211Z,85487.19
2023-04-18T15:39:35.317Z,85486.16
2023-04-18T15:42:01.433Z,85497.72
2023-04-18T15:44:27.521Z,85490.59
2023-04-18T15:46:53.616Z,85499.56
2023-04-18T15:49:19.710Z,85489.16
2023-04-18T15:51:45.798Z,85493.22
2023-04-18T15:54:12.047Z,85500.50
2023-04-18T15:56:38.249Z,85494.25
2023-04-18T15:59:04.345Z,85492.91
2023-04-18T16:01:30.562Z,85498.00
2023-04-18T16:03:56.830Z,85499.69
2023-04-18T16:06:22.960Z,85503.38
2023-04-18T16:08:49.053Z,85502.34
2023-04-18T16:11:15.160Z,85510.97
2023-04-18T16:13:41.303Z,85512.31
2023-04-18T16:16:07.449Z,85511.72
2023-04-18T16:18:33.591Z,85519.59
2023-04-18T16:20:59.776Z,85516.63
2023-04-18T16:23:25.880Z,85520.09
2023-04-18T16:25:52.016Z,85520.75
2023-04-18T16:28:18.138Z,85528.91
2023-04-18T16:30:44.276Z,85522.00
2023-04-18T16:33:10.493Z,85526.94
2023-04-18T16:35:36.713Z,85530.81
2023-04-18T16:38:02.836Z,85535.28
2023-04-18T16:40:28.934Z,85534.03
2023-04-18T16:42:55.060Z,85529.91
2023-04-18T16:45:21.173Z,85535.28
2023-04-18T16:47:47.329Z,85533.84
2023-04-18T16:50:13.497Z,85536.31
2023-04-18T16:52:39.617Z,85537.09
2023-04-18T16:55:05.750Z,85537.47
2023-04-18T16:57:31.841Z,85551.84
2023-04-18T16:59:57.980Z,85549.91
2023-04-18T17:02:24.221Z,85553.16
2023-04-18T17:04:50.529Z,85556.22
2023-04-18T17:07:16.678Z,85558.84
2023-04-18T17:09:42.776Z,85559.25
2023-04-18T17:12:08.889Z,85554.66
2023-04-18T17:14:35.039Z,85558.63
2023-04-18T17:17:01.133Z,85555.19
2023-04-18T17:19:27.258Z,85555.50
2023-04-18T17:21:53.368Z,85558.34
2023-04-18T17:24:19.494Z,85557.63
2023-04-18T17:26:45.605Z,85565.44
2023-04-18T17:29:11.765Z,85568.25
2023-04-18T17:31:37.955Z,85563.28
2023-04-18T17:34:04.102Z,85571.78
2023-04-18T17:36:30.203Z,85569.38
2023-04-18T17:38:56.352Z,85569.03
2023-04-18T17:41:22.510Z,85573.34
2023-04-18T17:43:48.664Z,85570.84
2023-04-18T17:46:14.922Z,85572.31
2023-04-18T17:48:41.065Z,85585.25
2023-04-18T17:51:07.176Z,85575.44
2023-04-18T17:53:33.269Z,85586.81
2023-04-18T17:55:59.385Z,85585.72
2023-04-18T17:58:25.494Z,85588.91
2023-04-18T18:00:51.610Z,85594.69
2023-04-18T18:03:17.824Z,85597.84
2023-04-18T18:05:44.093Z,85599.22
2023-04-18T18:08:10.210Z,85604.44
2023-04-18T18:10:36.310Z,85607.41
2023-04-18T18:13:02.420Z,85608.66
2023-04-18T18:15:28.566Z,85613.50
2023-04-18T18:17:54.692Z,85612.78
2023-04-18T18:20:20.813Z,85611.00
2023-04-18T18:22:46.941Z,85616.22
2023-04-18T18:25:13.089Z,85627.66
2023-04-18T18:27:39.292Z,85626.72
2023-04-18T18:30:05.393Z,85632.13
2023-04-18T18:32:31.597Z,85637.84
2023-04-18T18:34:57.802Z,85638.72
2023-04-18T18:37:23.962Z,85646.59
2023-04-18T18:39:50.068Z,85644.66
2023-04-18T18:42:16.197Z,85655.78
2023-04-18T18:44:42.317Z,85652.75
2023-04-18T18:47:08.412Z,85651.09
2023-04-18T18:49:34.614Z,85667.22
2023-04-18T18:52:00.730Z,85668.06
2023-04-18T18:54:26.839Z,85667.97
2023-04-18T18:56:52.949Z,85669.56
2023-04-18T18:59:19.093Z,85670.66
2023-04-18T19:01:45.233Z,85675.69
2023-04-18T19:04:11.592Z,85676.00
2023-04-18T19:06:37.785Z,85684.16
2023-04-18T19:09:03.876Z,85689.69
2023-04-18T19:11:30.047Z,85691.81
2023-04-18T19:13:56.141Z,85690.06
2023-04-18T19:16:22.272Z,85693.56
2023-04-18T19:18:48.522Z,85698.31
2023-04-18T19:21:14.637Z,85695.78
2023-04-18T19:23:40.733Z,85705.22
2023-04-18T19:26:06.848Z,85709.38
2023-04-18T19:28:32.952Z,85707.00
2023-04-18T19:30:59.085Z,85704.31
2023-04-18T19:33:25.198Z,85708.81
2023-04-18T19:35:51.284Z,85711.13
2023-04-18T19:38:17.417Z,85716.13
2023-04-18T19:40:43.525Z,85711.81
2023-04-18T19:43:09.657Z,85718.00
2023-04-18T19:45:35.836Z,85718.13
2023-04-18T19:48:01.941Z,85718.72
2023-04-18T19:50:28.073Z,85714.16
2023-04-18T19:52:54.196Z,85715.03
2023-04-18T19:55:20.293Z,85717.75
2023-04-18T19:57:46.401Z,85718.69
2023-04-18T20:00:12.621Z,85727.97
2023-04-18T20:02:38.877Z,85725.09
2023-04-18T20:05:05.295Z,85733.72
2023-04-18T20:07:31.542Z,85728.06
2023-04-18T20:09:57.648Z,85734.28
2023-04-18T20:12:23.734Z,85735.00
2023-04-18T20:14:49.822Z,85727.41
2023-04-18T20:17:15.924Z,85732.19
2023-04-18T20:19:42.038Z,85745.50
2023-04-18T20:22:08.161Z,85739.34
2023-04-18T20:24:34.272Z,85740.28
2023-04-18T20:27:00.373Z,85738.34
2023-04-18T20:29:26.457Z,85745.03
2023-04-18T20:31:52.585Z,85739.81
2023-04-18T20:34:18.705Z,85742.44
2023-04-18T20:36:44.830Z,85746.47
2023-04-18T20:39:10.940Z,85747.44
2023-04-18T20:41:37.096Z,85749.13
2023-04-18T20:44:03.266Z,85747.44
2023-04-18T20:46:29.420Z,85751.00
2023-04-18T20:48:55.575Z,85749.34
2023-04-18T20:51:21.704Z,85753.13
2023-04-18T20:53:47.803Z,85749.34
2023-04-18T20:56:13.898Z,85750.75
2023-04-18T20:58:40.010Z,85754.81
2023-04-18T21:01:06.141Z,85758.81
2023-04-18T21:03:32.478Z,85753.84
2023-04-18T21:05:58.690Z,85752.88
2023-04-18T21:08:24.798Z,85762.41
2023-04-18T21:10:50.943Z,85756.47
2023-04-18T21:13:17.080Z,85754.56
2023-04-18T21:15:43.259Z,85759.06
2023-04-18T21:18:09.543Z,85751.69
2023-04-18T21:20:35.713Z,85755.25
2023-04-18T21:23:01.995Z,85761.41
2023-04-18T21:25:28.107Z,85764.47
2023-04-18T21:27:54.215Z,85759.75
2023-04-18T21:30:20.356Z,85766.91
2023-04-18T21:32:46.473Z,85774.00
2023-04-18T21:35:12.597Z,85768.75
2023-04-18T21:37:38.687Z,85770.66
2023-04-18T21:40:04.804Z,85777.56
2023-04-18T21:42:31.029Z,85769.03
2023-04-18T21:44:57.186Z,85770.00
2023-04-18T21:47:23.334Z,85773.53
2023-04-18T21:49:49.484Z,85772.09
2023-04-18T21:52:15.606Z,85771.88
2023-04-18T21:54:41.777Z,85787.50
2023-04-18T21:57:07.873Z,85778.97
2023-04-18T21:59:33.967Z,85787.94
2023-04-18T22:02:00.149Z,85785.63
2023-04-18T22:04:26.667Z,85793.50
2023-04-18T22:06:52.961Z,85792.09
2023-04-18T22:09:19.067Z,85799.81
2023-04-18T22:11:45.187Z,85788.03
2023-04-18T22:14:11.300Z,85800.09
2023-04-18T22:16:37.396Z,85801.47
2023-04-18T22:19:03.565Z,85805.50
2023-04-18T22:21:29.684Z,85799.75
2023-04-18T22:23:55.802Z,85804.97
2023-04-18T22:26:21.916Z,85813.75
2023-04-18T22:28:48.018Z,85805.91
2023-04-18T22:31:14.183Z,85808.31
2023-04-18T22:33:40.302Z,85807.44
2023-04-18T22:36:06.394Z,85815.19
2023-04-18T22:38:32.507Z,85814.56
2023-04-18T22:40:58.614Z,85813.34
2023-04-18T22:43:24.737Z,85816.13
2023-04-18T22:45:50.899Z,85814.88
2023-04-18T22:48:17.096Z,85816.09
2023-04-18T22:50:43.213Z,85820.16
2023-04-18T22:53:09.335Z,85827.47
2023-04-18T22:55:35.482Z,85826.75
2023-04-18T22:58:01.567Z,85828.44
2023-04-18T23:00:27.666Z,85838.03
2023-04-18T23:02:53.889Z,85828.72
2023-04-18T23:05:20.035Z,85828.63
2023-04-18T23:07:46.151Z,85833.16
2023-04-18T23:10:12.274Z,85838.31
2023-04-18T23:12:38.396Z,85835.94
2023-04-18T23:15:04.478Z,85842.31
2023-04-18T23:17:30.633Z,85842.91
2023-04-18T23:19:56.729Z,85843.81
2023-04-18T23:22:22.827Z,85840.56
2023-04-18T23:24:48.953Z,85843.63
2023-04-18T23:27:15.044Z,85841.78
2023-04-18T23:29:41.140Z,85845.75
2023-04-18T23:32:07.219Z,85834.84
2023-04-18T23:34:33.314Z,85835.25
2023-04-18T23:36:59.425Z,85844.16
2023-04-18T23:39:25.509Z,85842.88
2023-04-18T23:41:51.621Z,85838.06
2023-04-18T23:44:17.709Z,85836.75
2023-04-18T23:46:43.858Z,85840.28
2023-04-18T23:49:09.983Z,85829.91
2023-04-18T23:51:36.074Z,85830.44
2023-04-18T23:54:02.163Z,85830.03
2023-04-18T23:56:28.289Z,85836.53
2023-04-18T23:58:54.457Z,85832.38
